Terminal Aerodrome Forecast
Issued by NWS

Home | Current Version | Previous Version | Text Only | Print | Product List | Glossary On
Versions: 1 2 3 4 5 6 7 8 9 10 11 12 13
000
FTUS46 KMTR 272300
TAFSTS
TAF
KSTS 272320Z 2800/2824 16005KT P6SM SCT250
     FM280400 VRB03KT P6SM BKN250
     FM281200 00000KT 1/2SM FG OVC010
     FM281700 20004KT 5SM BR OVC020 PROB30 2820/2824 3SM -RA OVC015=

USA.gov is the U.S. government's official web portal to all federal, state and local government web resources and services.